createdAt,value
2018-03-31T00:01:54.848Z,5.40
2018-03-31T00:04:22.267Z,5.40
2018-03-31T00:06:50.020Z,5.30
2018-03-31T00:09:17.025Z,5.30
2018-03-31T00:11:44.033Z,5.40
2018-03-31T00:14:11.032Z,5.40
2018-03-31T00:16:38.796Z,5.50
2018-03-31T00:19:05.828Z,5.40
2018-03-31T00:21:32.881Z,5.40
2018-03-31T00:24:00.659Z,5.50
2018-03-31T00:26:27.667Z,5.40
2018-03-31T00:28:54.637Z,5.50
2018-03-31T00:31:21.619Z,5.50
2018-03-31T00:33:49.370Z,5.50
2018-03-31T00:36:16.412Z,5.50
2018-03-31T00:38:43.447Z,5.50
2018-03-31T00:41:10.472Z,5.40
2018-03-31T00:43:37.489Z,5.40
2018-03-31T00:46:05.211Z,5.40
2018-03-31T00:48:32.241Z,5.40
2018-03-31T00:50:59.167Z,5.40
2018-03-31T00:53:26.156Z,5.40
2018-03-31T00:55:53.148Z,5.30
2018-03-31T00:58:20.189Z,5.30
2018-03-31T01:00:47.147Z,4.80
2018-03-31T01:03:14.217Z,4.90
2018-03-31T01:05:41.187Z,4.60
2018-03-31T01:08:08.226Z,4.40
2018-03-31T01:10:35.246Z,4.50
2018-03-31T01:13:02.238Z,4.50
2018-03-31T01:15:29.184Z,4.60
2018-03-31T01:17:56.167Z,4.40
2018-03-31T01:20:23.188Z,4.50
2018-03-31T01:22:50.227Z,4.30
2018-03-31T01:25:17.268Z,3.80
2018-03-31T01:27:44.290Z,3.60
2018-03-31T01:30:11.334Z,3.80
2018-03-31T01:32:38.329Z,3.80
2018-03-31T01:35:06.100Z,3.90
2018-03-31T01:37:33.096Z,3.80
2018-03-31T01:40:00.090Z,3.70
2018-03-31T01:42:27.219Z,3.30
2018-03-31T01:44:54.990Z,3.60
2018-03-31T01:47:22.005Z,3.60
2018-03-31T01:49:48.985Z,3.90
2018-03-31T01:52:15.950Z,4.20
2018-03-31T01:54:43.717Z,3.60
2018-03-31T01:57:10.741Z,3.60
2018-03-31T01:59:37.774Z,3.60
2018-03-31T02:02:04.753Z,3.80
2018-03-31T02:04:31.778Z,3.80
2018-03-31T02:06:59.578Z,3.50
2018-03-31T02:09:26.625Z,3.40
2018-03-31T02:11:53.717Z,3.70
2018-03-31T02:14:21.130Z,3.90
2018-03-31T02:16:48.150Z,3.90
2018-03-31T02:19:15.169Z,3.90
2018-03-31T02:21:42.243Z,4.10
2018-03-31T02:24:09.279Z,4.20
2018-03-31T02:26:36.324Z,4.20
2018-03-31T02:29:03.360Z,4.20
2018-03-31T02:31:30.346Z,4.30
2018-03-31T02:33:57.405Z,4.30
2018-03-31T02:36:24.435Z,4.00
2018-03-31T02:38:51.558Z,3.80
2018-03-31T02:41:18.572Z,4.10
2018-03-31T02:43:45.563Z,4.30
2018-03-31T02:46:12.552Z,4.60
2018-03-31T02:48:39.596Z,4.90
2018-03-31T02:51:06.604Z,5.10
2018-03-31T02:53:34.353Z,5.50
2018-03-31T02:56:01.400Z,5.50
2018-03-31T02:58:28.391Z,5.50
2018-03-31T03:00:55.421Z,5.50
2018-03-31T03:03:22.410Z,5.50
2018-03-31T03:05:49.430Z,5.70
2018-03-31T03:08:16.374Z,5.90
2018-03-31T03:10:43.383Z,6.10
2018-03-31T03:13:10.350Z,6.30
2018-03-31T03:15:37.394Z,6.30
2018-03-31T03:18:04.370Z,6.30
2018-03-31T03:20:31.368Z,6.30
2018-03-31T03:22:58.389Z,6.30
2018-03-31T03:25:25.350Z,6.30
2018-03-31T03:27:52.364Z,6.30
2018-03-31T03:30:19.391Z,6.30
2018-03-31T03:32:46.350Z,6.30
2018-03-31T03:35:13.350Z,6.40
2018-03-31T03:37:40.330Z,6.30
2018-03-31T03:40:07.330Z,6.40
2018-03-31T03:42:34.303Z,6.40
2018-03-31T03:45:01.310Z,6.40
2018-03-31T03:47:28.338Z,6.40
2018-03-31T03:49:55.350Z,6.50
2018-03-31T03:52:22.378Z,6.40
2018-03-31T03:54:49.351Z,6.50
2018-03-31T03:57:16.334Z,6.40
2018-03-31T03:59:43.350Z,6.40
2018-03-31T04:02:10.407Z,6.40
2018-03-31T04:04:37.390Z,6.40
2018-03-31T04:07:04.411Z,6.30
2018-03-31T04:09:31.505Z,6.40
2018-03-31T04:11:58.562Z,6.40
2018-03-31T04:14:25.567Z,6.40
2018-03-31T04:16:52.597Z,6.40
2018-03-31T04:19:19.607Z,6.40
2018-03-31T04:21:46.581Z,6.30
2018-03-31T04:24:13.549Z,6.30
2018-03-31T04:26:40.575Z,6.30
2018-03-31T04:29:07.570Z,6.30
2018-03-31T04:31:34.631Z,6.30
2018-03-31T04:34:01.618Z,6.40
2018-03-31T04:36:28.679Z,6.50
2018-03-31T04:38:55.775Z,6.50
2018-03-31T04:41:22.822Z,6.60
2018-03-31T04:43:49.788Z,6.70
2018-03-31T04:46:16.870Z,6.70
2018-03-31T04:48:43.918Z,6.80
2018-03-31T04:51:10.988Z,6.80
2018-03-31T04:53:38.049Z,6.90
2018-03-31T04:56:05.042Z,6.80
2018-03-31T04:58:32.035Z,6.80
2018-03-31T05:00:59.058Z,6.80
2018-03-31T05:03:26.832Z,6.80
2018-03-31T05:05:53.888Z,6.80
2018-03-31T05:08:20.938Z,6.80
2018-03-31T05:10:48.113Z,6.70
2018-03-31T05:13:17.163Z,6.60
2018-03-31T05:15:44.195Z,6.60
2018-03-31T05:18:11.207Z,6.60
2018-03-31T05:20:38.249Z,6.70
2018-03-31T05:23:05.232Z,6.90
2018-03-31T05:25:32.186Z,7.00
2018-03-31T05:27:59.255Z,7.00
2018-03-31T05:30:26.233Z,7.10
2018-03-31T05:32:53.216Z,7.20
2018-03-31T05:35:20.212Z,7.40
2018-03-31T05:37:47.478Z,7.50
2018-03-31T05:40:14.927Z,7.80
2018-03-31T05:42:41.972Z,8.00
2018-03-31T05:45:09.028Z,8.20
2018-03-31T05:47:36.008Z,8.50
2018-03-31T05:50:07.733Z,8.70
2018-03-31T05:52:34.716Z,8.90
2018-03-31T05:55:02.460Z,8.90
2018-03-31T05:57:29.442Z,8.90
2018-03-31T05:59:56.386Z,8.90
2018-03-31T06:02:23.390Z,8.80
2018-03-31T06:04:50.435Z,8.80
2018-03-31T06:07:17.361Z,8.80
2018-03-31T06:09:44.468Z,9.00
2018-03-31T06:12:11.465Z,9.20
2018-03-31T06:14:38.427Z,9.40
2018-03-31T06:17:05.451Z,9.70
2018-03-31T06:19:32.571Z,9.70
2018-03-31T06:21:59.542Z,9.60
2018-03-31T06:24:26.926Z,9.60
2018-03-31T06:26:53.912Z,9.60
2018-03-31T06:29:20.857Z,9.50
2018-03-31T06:31:47.814Z,9.50
2018-03-31T06:34:14.789Z,9.60
2018-03-31T06:36:41.754Z,9.60
2018-03-31T06:39:08.812Z,9.60
2018-03-31T06:41:36.536Z,9.50
2018-03-31T06:44:03.516Z,9.50
2018-03-31T06:46:30.605Z,9.50
2018-03-31T06:48:57.613Z,9.40
2018-03-31T06:51:25.429Z,9.30
2018-03-31T06:53:53.106Z,9.20
2018-03-31T06:56:20.325Z,9.20
2018-03-31T06:58:47.785Z,9.00
2018-03-31T07:01:14.853Z,8.80
2018-03-31T07:03:42.373Z,8.80
2018-03-31T07:06:09.494Z,8.70
2018-03-31T07:08:36.754Z,8.60
2018-03-31T07:11:04.615Z,8.70
2018-03-31T07:13:31.814Z,8.60
2018-03-31T07:15:59.014Z,8.70
2018-03-31T07:18:26.194Z,8.70
2018-03-31T07:20:53.553Z,8.80
2018-03-31T07:23:20.613Z,8.90
2018-03-31T07:25:48.461Z,8.80
2018-03-31T07:28:19.201Z,8.80
2018-03-31T07:30:55.502Z,8.90
2018-03-31T07:33:29.106Z,9.10
2018-03-31T07:36:02.561Z,9.20
2018-03-31T07:38:30.868Z,9.50
2018-03-31T07:41:01.870Z,9.50
2018-03-31T07:43:30.141Z,9.60
2018-03-31T07:45:57.988Z,10.00
2018-03-31T07:48:25.549Z,10.00
2018-03-31T07:50:52.689Z,10.10
2018-03-31T07:53:20.956Z,10.20
2018-03-31T07:55:50.196Z,10.40
2018-03-31T07:58:20.574Z,10.50
2018-03-31T08:00:53.120Z,10.50
2018-03-31T08:03:20.255Z,10.60
2018-03-31T08:05:55.702Z,10.50
2018-03-31T08:08:22.660Z,10.50
2018-03-31T08:10:52.215Z,10.60
2018-03-31T08:13:19.348Z,10.50
2018-03-31T08:15:47.478Z,10.70
2018-03-31T08:18:14.555Z,10.90
2018-03-31T08:20:50.102Z,11.00
2018-03-31T08:23:28.845Z,11.20
2018-03-31T08:25:56.053Z,11.30
2018-03-31T08:28:24.657Z,11.40
2018-03-31T08:30:51.688Z,11.40
2018-03-31T08:35:51.003Z,11.50
2018-03-31T08:38:20.957Z,11.40
2018-03-31T08:41:00.144Z,11.30
2018-03-31T08:46:08.041Z,11.20
2018-03-31T08:48:43.407Z,11.10
2018-03-31T08:51:14.076Z,11.10
2018-03-31T08:53:50.244Z,11.20
2018-03-31T08:56:18.235Z,11.20
2018-03-31T08:58:46.154Z,11.20
2018-03-31T09:01:13.644Z,11.30
2018-03-31T09:03:40.692Z,11.40
2018-03-31T09:06:07.785Z,11.50
2018-03-31T09:08:34.732Z,11.60
2018-03-31T09:11:01.710Z,11.60
2018-03-31T09:13:28.719Z,11.60
2018-03-31T09:15:55.697Z,11.60
2018-03-31T09:18:22.732Z,11.60
2018-03-31T09:20:50.513Z,11.50
2018-03-31T09:23:17.540Z,11.50
2018-03-31T09:25:44.546Z,11.50
2018-03-31T09:28:12.317Z,11.50
2018-03-31T09:30:39.256Z,11.40
2018-03-31T09:33:06.226Z,11.50
2018-03-31T09:35:33.250Z,11.50
2018-03-31T09:38:00.351Z,11.50
2018-03-31T09:40:28.534Z,11.60
2018-03-31T09:42:55.926Z,11.50
2018-03-31T09:45:22.987Z,11.60
2018-03-31T09:47:50.186Z,11.60
2018-03-31T09:50:17.270Z,11.60
2018-03-31T09:52:44.467Z,11.60
2018-03-31T09:55:11.708Z,11.60
2018-03-31T09:57:39.067Z,11.50
2018-03-31T10:00:06.287Z,11.50
2018-03-31T10:02:33.367Z,11.40
2018-03-31T10:05:00.448Z,11.40
2018-03-31T10:07:28.447Z,11.10
2018-03-31T10:09:55.486Z,10.90
2018-03-31T10:12:22.687Z,10.80
2018-03-31T10:14:50.847Z,10.50
2018-03-31T10:17:17.907Z,10.50
2018-03-31T10:19:45.286Z,10.30
2018-03-31T10:22:12.389Z,10.20
2018-03-31T10:24:39.948Z,10.10
2018-03-31T10:27:07.087Z,10.10
2018-03-31T10:29:34.207Z,10.20
2018-03-31T10:32:01.626Z,10.40
2018-03-31T10:34:28.726Z,10.50
2018-03-31T10:36:55.867Z,10.50
2018-03-31T10:39:23.488Z,10.50
2018-03-31T10:41:50.608Z,10.60
2018-03-31T10:44:17.770Z,10.70
2018-03-31T10:46:45.707Z,10.70
2018-03-31T10:49:12.828Z,10.60
2018-03-31T10:51:39.997Z,10.70
2018-03-31T10:54:07.227Z,10.60
2018-03-31T10:56:34.427Z,10.70
2018-03-31T10:59:01.627Z,10.80
2018-03-31T11:01:29.706Z,10.60
2018-03-31T11:03:57.906Z,10.70
2018-03-31T11:06:25.888Z,10.70
2018-03-31T11:08:53.086Z,10.70
2018-03-31T11:11:20.607Z,10.80
2018-03-31T11:13:47.688Z,10.80
2018-03-31T11:16:14.691Z,10.80
2018-03-31T11:18:41.900Z,10.80
2018-03-31T11:21:09.104Z,10.70
2018-03-31T11:23:36.207Z,10.70
2018-03-31T11:26:03.927Z,10.60
2018-03-31T11:28:31.867Z,10.60
2018-03-31T11:30:59.167Z,10.60
2018-03-31T11:33:26.253Z,10.70
2018-03-31T11:35:53.246Z,10.70
2018-03-31T11:38:20.646Z,10.70
2018-03-31T11:40:48.288Z,10.80
2018-03-31T11:43:15.488Z,10.80
2018-03-31T11:45:42.526Z,10.80
2018-03-31T11:48:09.626Z,10.80
2018-03-31T11:50:36.706Z,10.90
2018-03-31T11:57:53.246Z,15.60
2018-03-31T12:05:18.067Z,21.10
2018-03-31T12:07:46.167Z,16.20
2018-03-31T12:10:13.667Z,16.10
2018-03-31T12:12:41.006Z,14.00
2018-03-31T12:15:08.248Z,13.00
2018-03-31T12:17:35.556Z,12.30
2018-03-31T12:20:02.786Z,11.80
2018-03-31T12:22:30.047Z,11.40
2018-03-31T12:24:57.267Z,11.10
2018-03-31T12:27:24.546Z,10.90
2018-03-31T12:29:51.926Z,10.80
2018-03-31T12:32:20.027Z,10.80
2018-03-31T12:34:47.395Z,10.70
2018-03-31T12:37:14.686Z,10.70
2018-03-31T12:39:41.989Z,10.70
2018-03-31T12:42:09.206Z,10.60
2018-03-31T12:44:36.547Z,10.70
2018-03-31T12:47:03.766Z,10.70
2018-03-31T12:49:31.127Z,10.70
2018-03-31T12:51:58.428Z,10.70
2018-03-31T12:54:25.634Z,10.80
2018-03-31T12:56:52.867Z,11.00
2018-03-31T12:59:20.528Z,11.10
2018-03-31T13:01:47.870Z,11.20
2018-03-31T13:04:15.327Z,11.10
2018-03-31T13:06:42.568Z,11.10
2018-03-31T13:09:09.827Z,11.00
2018-03-31T13:11:37.435Z,10.90
2018-03-31T13:14:04.846Z,10.80
2018-03-31T13:16:32.086Z,10.70
2018-03-31T13:19:00.334Z,11.00
2018-03-31T13:21:28.006Z,11.00
2018-03-31T13:23:56.126Z,11.40
2018-03-31T13:26:23.458Z,11.40
2018-03-31T13:28:50.807Z,11.60
2018-03-31T13:31:18.267Z,11.70
2018-03-31T13:33:45.608Z,11.80
2018-03-31T13:36:13.008Z,12.00
2018-03-31T13:38:40.827Z,12.20
2018-03-31T13:41:08.427Z,12.30
2018-03-31T13:43:37.588Z,12.20
2018-03-31T13:46:05.050Z,12.20
2018-03-31T13:48:32.368Z,12.00
2018-03-31T13:50:59.587Z,11.90
2018-03-31T13:53:26.768Z,11.80
2018-03-31T13:55:54.088Z,11.80
2018-03-31T13:58:21.987Z,11.90
2018-03-31T14:00:49.568Z,11.90
2018-03-31T14:03:17.029Z,11.90
2018-03-31T14:05:44.315Z,11.90
2018-03-31T14:08:12.436Z,11.80
2018-03-31T14:10:39.968Z,11.80
2018-03-31T14:13:07.348Z,11.70
2018-03-31T14:15:34.936Z,11.60
2018-03-31T14:18:02.211Z,11.60
2018-03-31T14:20:30.079Z,11.60
2018-03-31T14:22:57.331Z,11.60
2018-03-31T14:25:24.632Z,11.60
2018-03-31T14:27:51.970Z,11.70
2018-03-31T14:30:19.410Z,11.70
2018-03-31T14:32:46.953Z,11.70
2018-03-31T14:35:14.291Z,11.50
2018-03-31T14:37:41.721Z,11.40
2018-03-31T14:40:09.191Z,11.40
2018-03-31T14:42:36.451Z,11.30
2018-03-31T14:45:03.614Z,11.40
2018-03-31T14:47:31.032Z,11.40
2018-03-31T14:49:58.752Z,11.40
2018-03-31T14:52:25.973Z,11.30
2018-03-31T14:54:53.412Z,11.20
2018-03-31T14:57:20.653Z,11.20
2018-03-31T14:59:48.031Z,11.10
2018-03-31T15:02:15.607Z,11.10
2018-03-31T15:04:43.749Z,11.10
2018-03-31T15:07:11.452Z,11.10
2018-03-31T15:09:38.746Z,11.20
2018-03-31T15:12:06.155Z,11.20
2018-03-31T15:14:33.771Z,11.20
2018-03-31T15:17:01.410Z,11.10
2018-03-31T15:19:28.708Z,11.10
2018-03-31T15:21:56.089Z,11.10
2018-03-31T15:24:23.389Z,11.10
2018-03-31T15:26:50.607Z,11.00
2018-03-31T15:29:17.828Z,10.90
2018-03-31T15:31:45.169Z,10.80
2018-03-31T15:34:12.549Z,10.80
2018-03-31T15:36:39.968Z,10.70
2018-03-31T15:39:07.387Z,10.60
2018-03-31T15:41:34.611Z,10.50
2018-03-31T15:44:01.860Z,10.50
2018-03-31T15:46:29.338Z,10.40
2018-03-31T15:48:56.598Z,10.40
2018-03-31T15:51:23.757Z,10.40
2018-03-31T15:53:51.917Z,10.40
2018-03-31T15:56:19.257Z,10.30
2018-03-31T15:58:46.511Z,10.30
2018-03-31T16:01:13.830Z,10.30
2018-03-31T16:03:41.099Z,10.30
2018-03-31T16:06:08.310Z,10.20
2018-03-31T16:08:35.558Z,10.20
2018-03-31T16:11:02.794Z,10.10
2018-03-31T16:13:30.018Z,10.10
2018-03-31T16:15:57.411Z,10.10
2018-03-31T16:18:24.692Z,10.10
2018-03-31T16:20:51.951Z,10.10
2018-03-31T16:23:19.959Z,10.10
2018-03-31T16:25:47.258Z,10.10
2018-03-31T16:28:14.517Z,10.10
2018-03-31T16:30:41.866Z,10.10
2018-03-31T16:33:09.229Z,10.10
2018-03-31T16:35:36.510Z,10.10
2018-03-31T16:38:03.792Z,10.10
2018-03-31T16:40:31.110Z,10.00
2018-03-31T16:42:58.411Z,10.00
2018-03-31T16:45:25.658Z,10.00
2018-03-31T16:47:52.842Z,9.90
2018-03-31T16:50:20.051Z,9.90
2018-03-31T16:52:47.451Z,9.80
2018-03-31T16:55:14.687Z,9.80
2018-03-31T16:57:41.960Z,9.80
2018-03-31T17:00:11.127Z,9.80
2018-03-31T17:02:39.604Z,9.70
2018-03-31T17:05:07.197Z,9.70
2018-03-31T17:07:34.394Z,9.60
2018-03-31T17:10:01.829Z,9.60
2018-03-31T17:12:29.771Z,9.50
2018-03-31T17:14:57.354Z,9.50
2018-03-31T17:17:25.421Z,9.40
2018-03-31T17:19:53.271Z,9.40
2018-03-31T17:22:21.409Z,9.30
2018-03-31T17:24:48.648Z,9.30
2018-03-31T17:27:15.909Z,9.30
2018-03-31T17:29:43.110Z,9.20
2018-03-31T17:32:10.422Z,9.20
2018-03-31T17:34:37.689Z,9.10
2018-03-31T17:37:04.990Z,9.10
2018-03-31T17:39:32.207Z,9.10
2018-03-31T17:42:01.174Z,9.00
2018-03-31T17:44:28.451Z,9.00
2018-03-31T17:46:55.604Z,8.90
2018-03-31T17:49:22.849Z,8.90
2018-03-31T17:51:50.132Z,8.90
2018-03-31T17:54:17.332Z,9.00
2018-03-31T17:56:44.533Z,9.00
2018-03-31T17:59:11.927Z,9.00
2018-03-31T18:01:39.150Z,9.00
2018-03-31T18:04:06.412Z,9.00
2018-03-31T18:06:33.809Z,9.00
2018-03-31T18:09:00.962Z,9.00
2018-03-31T18:11:28.626Z,9.00
2018-03-31T18:13:55.887Z,9.10
2018-03-31T18:16:23.129Z,9.00
2018-03-31T18:18:50.291Z,9.00
2018-03-31T18:21:17.569Z,9.00
2018-03-31T18:23:45.115Z,9.00
2018-03-31T18:26:12.348Z,8.90
2018-03-31T18:28:39.550Z,9.00
2018-03-31T18:31:06.739Z,9.00
2018-03-31T18:33:34.091Z,9.10
2018-03-31T18:36:02.126Z,9.00
2018-03-31T18:38:29.314Z,9.00
2018-03-31T18:40:56.730Z,9.00
2018-03-31T18:43:24.148Z,8.90
2018-03-31T18:45:51.608Z,8.90
2018-03-31T18:48:18.827Z,8.80
2018-03-31T18:50:46.308Z,8.80
2018-03-31T18:53:13.628Z,8.90
2018-03-31T18:55:41.006Z,8.80
2018-03-31T18:58:08.287Z,8.70
2018-03-31T19:00:35.632Z,8.70
2018-03-31T19:03:02.906Z,8.50
2018-03-31T19:05:30.250Z,8.50
2018-03-31T19:07:57.571Z,8.50
2018-03-31T19:10:25.159Z,8.40
2018-03-31T19:12:52.572Z,8.40
2018-03-31T19:15:19.867Z,8.40
2018-03-31T19:17:47.207Z,8.30
2018-03-31T19:20:17.592Z,8.20
2018-03-31T19:22:44.808Z,8.20
2018-03-31T19:25:17.687Z,8.20
2018-03-31T19:27:44.967Z,8.20
2018-03-31T19:30:13.087Z,8.00
2018-03-31T19:32:42.135Z,8.10
2018-03-31T19:35:09.686Z,8.10
2018-03-31T19:37:37.026Z,8.00
2018-03-31T19:40:04.447Z,8.10
2018-03-31T19:42:33.764Z,8.10
2018-03-31T19:45:01.308Z,8.10
2018-03-31T19:47:28.646Z,8.10
2018-03-31T19:49:56.007Z,8.10
2018-03-31T19:52:23.408Z,8.10
2018-03-31T19:54:50.806Z,8.00
2018-03-31T19:57:18.108Z,8.10
2018-03-31T19:59:45.388Z,8.20
2018-03-31T20:02:12.669Z,8.20
2018-03-31T20:04:39.906Z,8.20
2018-03-31T20:07:07.267Z,8.20
2018-03-31T20:09:34.695Z,8.10
2018-03-31T20:12:01.987Z,8.10
2018-03-31T20:14:29.326Z,8.10
2018-03-31T20:16:56.927Z,8.00
2018-03-31T20:19:24.227Z,8.00
2018-03-31T20:21:51.568Z,8.00
2018-03-31T20:24:20.669Z,7.90
2018-03-31T20:26:48.608Z,7.90
2018-03-31T20:29:15.926Z,7.90
2018-03-31T20:34:15.306Z,8.00
2018-03-31T20:36:42.627Z,8.00
2018-03-31T20:39:10.008Z,8.00
2018-03-31T20:41:37.327Z,8.10
2018-03-31T20:44:04.567Z,8.10
2018-03-31T20:46:32.927Z,8.10
2018-03-31T20:49:00.547Z,8.10
2018-03-31T20:51:27.973Z,8.10
2018-03-31T20:53:55.278Z,8.10
2018-03-31T20:56:22.589Z,8.00
2018-03-31T20:58:49.907Z,8.00
2018-03-31T21:01:17.208Z,7.90
2018-03-31T21:03:44.627Z,7.80
2018-03-31T21:06:11.929Z,7.80
2018-03-31T21:08:39.331Z,7.70
2018-03-31T21:11:06.792Z,7.60
2018-03-31T21:13:34.148Z,7.50
2018-03-31T21:16:01.447Z,7.30
2018-03-31T21:18:28.768Z,7.20
2018-03-31T21:20:56.087Z,7.00
2018-03-31T21:23:23.809Z,6.90
2018-03-31T21:25:51.369Z,6.90
2018-03-31T21:28:18.749Z,6.80
2018-03-31T21:30:47.007Z,6.70
2018-03-31T21:33:14.347Z,6.70
2018-03-31T21:35:42.620Z,6.60
2018-03-31T21:38:09.908Z,6.60
2018-03-31T21:40:37.552Z,6.60
2018-03-31T21:43:04.947Z,6.60
2018-03-31T21:45:32.209Z,6.60
2018-03-31T21:47:59.546Z,6.60
2018-03-31T21:50:27.069Z,6.60
2018-03-31T21:52:55.107Z,6.70
2018-03-31T21:55:22.488Z,6.70
2018-03-31T21:57:49.836Z,6.70
2018-03-31T22:00:20.136Z,6.70
2018-03-31T22:02:47.468Z,6.70
2018-03-31T22:05:14.746Z,6.80
2018-03-31T22:07:42.229Z,6.70
2018-03-31T22:10:09.572Z,6.70
2018-03-31T22:12:36.886Z,6.70
2018-03-31T22:15:09.727Z,6.60
2018-03-31T22:17:37.167Z,6.70
2018-03-31T22:20:04.487Z,6.50
2018-03-31T22:22:31.886Z,6.50
2018-03-31T22:24:59.268Z,6.40
2018-03-31T22:27:26.807Z,6.40
2018-03-31T22:29:54.107Z,6.40
2018-03-31T22:32:21.527Z,6.40
2018-03-31T22:34:49.274Z,6.40
2018-03-31T22:37:16.530Z,6.40
2018-03-31T22:39:43.968Z,6.40
2018-03-31T22:42:11.326Z,6.40
2018-03-31T22:44:39.666Z,6.40
2018-03-31T22:47:07.126Z,6.40
2018-03-31T22:49:34.486Z,6.30
2018-03-31T22:52:01.889Z,6.40
2018-03-31T22:54:29.186Z,6.40
2018-03-31T22:56:56.486Z,6.40
2018-03-31T22:59:24.367Z,6.30
2018-03-31T23:01:51.796Z,6.30
2018-03-31T23:04:19.086Z,6.30
2018-03-31T23:06:46.367Z,6.30
2018-03-31T23:09:13.628Z,6.20
2018-03-31T23:11:41.086Z,6.20
2018-03-31T23:14:08.406Z,6.20
2018-03-31T23:16:35.787Z,6.30
2018-03-31T23:19:03.128Z,6.30
2018-03-31T23:21:30.706Z,6.30
2018-03-31T23:23:59.566Z,6.30
2018-03-31T23:26:26.946Z,6.30
2018-03-31T23:28:55.006Z,6.30
2018-03-31T23:31:22.426Z,6.30
2018-03-31T23:33:49.827Z,6.30
2018-03-31T23:36:17.226Z,6.30
2018-03-31T23:38:44.567Z,6.30
2018-03-31T23:41:11.847Z,6.30
2018-03-31T23:43:39.127Z,6.30
2018-03-31T23:46:06.386Z,6.30
2018-03-31T23:48:33.627Z,6.40
2018-03-31T23:51:01.754Z,6.40
2018-03-31T23:53:29.006Z,6.40
2018-03-31T23:55:56.446Z,6.40
2018-03-31T23:58:23.867Z,6.40
